Capt Ryan — WDB8186 — position and weather

sailwx.info

Track history (hours):
 
Tides and Currents Weather Stations Pressure Air Temp Water Temp Dewpoint Dewpoint Depression Visibility Wind Speed Wind Dir Waves Ship Positions

Capt Ryan

Owner: MORRISON, THOMAS H, WARRENTON, OR. More information available from US FCC via Universal Licensing System and Coast Guard Vessel Documentation Center.

Last reported at 2018-Jul-22 10:16 UTC. Time now 2018-Jul-22 12:49 UTC.
Position N 47°09' W 124°47'.

Length 19 m.

Type: Ship. MMSI: 366954430.

Date/timePositionNaut miles runAvg speedWind from/ knotsBaromVisibWave heightAir tempDewpointWater temp
2018-Jul-22 10:16N 47°09' W 124°47'3 6.6
2018-Jul-22 09:46N 47°06' W 124°45'2 6.4
2018-Jul-22 09:30N 47°05' W 124°44'3 6.6
2018-Jul-22 09:00N 47°02' W 124°42'3 6.4
2018-Jul-22 08:30N 46°59' W 124°41'3 6.4
2018-Jul-22 08:01N 46°55' W 124°40'3 6.7
2018-Jul-22 07:30N 46°52' W 124°39'5 7.0
2018-Jul-22 06:47N 46°47' W 124°37'2 6.6
2018-Jul-22 06:30N 46°46' W 124°36'3 6.6
2018-Jul-22 06:00N 46°43' W 124°34'3 6.9
2018-Jul-22 05:31N 46°39' W 124°32'26 3.6
2018-Jul-21 22:27N 46°19' W 124°09'4 8.3
2018-Jul-21 22:01N 46°16' W 124°06'5 9.7
2018-Jul-21 21:31N 46°15' W 123°60'510.0
2018-Jul-21 21:00N 46°12' W 123°54'2 3.3
2018-Jul-21 20:30N 46°11' W 123°51'0 0.4
2018-Jul-21 20:01N 46°11' W 123°52'3 0.1
2018-Jul-20 01:46N 46°10' W 123°55'1 4.7
2018-Jul-20 01:31N 46°11' W 123°54'2 3.7
2018-Jul-20 01:00N 46°11' W 123°51'0 0.0
2018-Jul-20 00:31N 46°11' W 123°51'0 0.2
2018-Jul-20 00:01N 46°11' W 123°52'0 0.2
2018-Jul-19 23:31N 46°11' W 123°51'0 0.0
2018-Jul-19 23:00N 46°11' W 123°51'0 0.0
2018-Jul-19 22:30N 46°11' W 123°51'0 0.0
2018-Jul-19 21:59N 46°11' W 123°51'0 0.0
2018-Jul-19 21:31N 46°11' W 123°51'0 0.0
2018-Jul-19 21:01N 46°11' W 123°51'0 0.0
2018-Jul-19 20:31N 46°11' W 123°51'0 0.0
2018-Jul-19 19:59N 46°11' W 123°51'0 0.0
2018-Jul-19 19:30N 46°11' W 123°51'0 0.0
2018-Jul-19 19:01N 46°11' W 123°51'0 0.0
2018-Jul-19 18:31N 46°11' W 123°51'0 0.0
2018-Jul-19 18:01N 46°11' W 123°51'0 0.0
2018-Jul-19 17:18N 46°11' W 123°51'0 0.0
2018-Jul-19 16:53N 46°11' W 123°51'0 0.0
2018-Jul-19 16:30N 46°11' W 123°51'0 0.0
2018-Jul-19 16:01N 46°11' W 123°51'0 0.0
2018-Jul-19 15:24N 46°11' W 123°51'0 0.0
2018-Jul-19 14:55N 46°11' W 123°51'0 0.0
2018-Jul-19 14:31N 46°11' W 123°51'0 0.0
2018-Jul-19 13:27N 46°11' W 123°51'0 0.0
2018-Jul-19 13:00N 46°11' W 123°51'0 0.0
2018-Jul-19 12:29N 46°11' W 123°51'0 0.0
2018-Jul-19 12:00N 46°11' W 123°51'0 0.0
2018-Jul-19 11:31N 46°11' W 123°51'0 0.0
2018-Jul-19 11:00N 46°11' W 123°51'2 4.6
2018-Jul-19 10:31N 46°12' W 123°55'5 8.4
2018-Jul-19 09:55N 46°15' W 124°00'3 7.8
2018-Jul-19 09:31N 46°15' W 124°05'4 7.2
2018-Jul-19 09:00N 46°18' W 124°08'4 8.3
2018-Jul-19 08:31N 46°22' W 124°11'5 9.0
2018-Jul-19 08:00N 46°26' W 124°14'4 9.1
2018-Jul-19 07:30N 46°30' W 124°17'5 9.1
2018-Jul-19 06:59N 46°34' W 124°20'4 8.3
2018-Jul-19 06:31N 46°38' W 124°22'4 8.6
2018-Jul-19 06:00N 46°42' W 124°25'4 8.4
2018-Jul-19 05:28N 46°45' W 124°30'4 8.5
2018-Jul-19 05:00N 46°48' W 124°33'5 8.3
2018-Jul-19 04:26N 46°52' W 124°38'3 5.8
2018-Jul-19 04:00N 46°53' W 124°41'2 2.4
2018-Jul-19 03:02N 46°55' W 124°43'0 5.5
2018-Jul-19 03:00N 46°55' W 124°43'5 6.4
2018-Jul-19 02:17N 46°59' W 124°47'2 0.4
2018-Jul-18 22:11N 46°60' W 124°48'0 2.3
2018-Jul-18 22:00N 46°60' W 124°48'0 0.5
2018-Jul-18 21:27N 46°60' W 124°48'43 1.1
2018-Jul-17 06:06N 47°42' W 125°00'0 0.5
2018-Jul-17 05:54N 47°42' W 125°01'4 2.9
2018-Jul-17 04:34N 47°40' W 124°55'0 0.9
2018-Jul-17 04:11N 47°39' W 124°56'0 1.8
2018-Jul-17 03:54N 47°39' W 124°55'1 1.6
2018-Jul-17 03:29N 47°38' W 124°55'5 0.4
2018-Jul-16 14:19N 47°34' W 124°54'4 1.7
2018-Jul-16 12:07N 47°30' W 124°55'1 0.9
2018-Jul-16 11:10N 47°31' W 124°56'0 0.9
2018-Jul-16 10:55N 47°31' W 124°56'0 0.9
2018-Jul-16 10:30N 47°31' W 124°56'0 0.9
2018-Jul-16 10:01N 47°32' W 124°56'3 1.1
2018-Jul-16 07:37N 47°34' W 124°58'0 1.3
2018-Jul-16 07:30N 47°34' W 124°58'1 1.3
2018-Jul-16 06:58N 47°35' W 124°58'1 1.2
2018-Jul-16 06:30N 47°36' W 124°59'1 1.2
2018-Jul-16 06:00N 47°36' W 124°59'2 4.6
2018-Jul-16 05:30N 47°34' W 124°56'1 2.9
2018-Jul-16 05:00N 47°34' W 124°55'0 0.8
2018-Jul-16 04:30N 47°34' W 124°54'1 1.5
2018-Jul-16 04:00N 47°34' W 124°55'1 1.8
2018-Jul-16 03:27N 47°35' W 124°55'1 2.0
2018-Jul-16 02:44N 47°36' W 124°57'0 0.9
2018-Jul-16 02:14N 47°36' W 124°56'0 1.7
2018-Jul-16 02:00N 47°36' W 124°56'1 1.6
2018-Jul-16 01:30N 47°35' W 124°55'1 1.7
2018-Jul-16 00:59N 47°34' W 124°55'1 1.6
2018-Jul-16 00:31N 47°34' W 124°54'1 1.6
2018-Jul-15 23:59N 47°33' W 124°54'1 1.7
2018-Jul-15 23:30N 47°32' W 124°53'0 0.9
2018-Jul-15 22:59N 47°32' W 124°53'3 1.5
2018-Jul-15 20:54N 47°35' W 124°55'1 1.8
2018-Jul-15 20:30N 47°34' W 124°54'1 1.7
2018-Jul-15 20:01N 47°33' W 124°54'1 1.8
2018-Jul-15 19:30N 47°32' W 124°53'2 2.3
2018-Jul-15 18:39N 47°31' W 124°52'20 2.6
2018-Jul-15 10:54N 47°14' W 124°36'3 7.8
2018-Jul-15 10:28N 47°11' W 124°34'4 7.6
2018-Jul-15 09:57N 47°07' W 124°32'4 7.9
2018-Jul-15 09:30N 47°04' W 124°30'4 8.3
2018-Jul-15 09:00N 47°00' W 124°27'4 8.2
2018-Jul-15 08:30N 46°56' W 124°24'4 8.1
2018-Jul-15 08:00N 46°53' W 124°22'4 8.3
2018-Jul-15 07:31N 46°49' W 124°20'4 8.4
2018-Jul-15 06:59N 46°45' W 124°18'4 8.5
2018-Jul-15 06:30N 46°41' W 124°16'4 8.4
2018-Jul-15 06:01N 46°37' W 124°15'4 8.2
2018-Jul-15 05:30N 46°33' W 124°14'4 8.2
2018-Jul-15 05:00N 46°29' W 124°13'4 8.1
2018-Jul-15 04:30N 46°25' W 124°11'4 8.2
2018-Jul-15 04:00N 46°20' W 124°10'4 8.4
2018-Jul-15 03:30N 46°17' W 124°08'5 9.2
2018-Jul-15 03:01N 46°15' W 124°02'611.5
2018-Jul-15 02:31N 46°12' W 123°55'3 5.2
2018-Jul-15 02:00N 46°11' W 123°51'  
Track history (hours):
 
Tides and Currents Weather Stations Pressure Air Temp Water Temp Dewpoint Dewpoint Depression Visibility Wind Speed Wind Dir Waves Ship Positions

Capt Ryan

Owner: MORRISON, THOMAS H, WARRENTON, OR. More information available from US FCC via Universal Licensing System and Coast Guard Vessel Documentation Center.

Last reported at 2018-Jul-22 10:16 UTC. Time now 2018-Jul-22 12:49 UTC.
Position N 47°09' W 124°47'.

Length 19 m.

Type: Ship. MMSI: 366954430.

Date/timePositionNaut miles runAvg speedWind from/ knotsBaromVisibWave heightAir tempDewpointWater temp
2018-Jul-22 10:16N 47°09' W 124°47'3 6.6
2018-Jul-22 09:46N 47°06' W 124°45'2 6.4
2018-Jul-22 09:30N 47°05' W 124°44'3 6.6
2018-Jul-22 09:00N 47°02' W 124°42'3 6.4
2018-Jul-22 08:30N 46°59' W 124°41'3 6.4
2018-Jul-22 08:01N 46°55' W 124°40'3 6.7
2018-Jul-22 07:30N 46°52' W 124°39'5 7.0
2018-Jul-22 06:47N 46°47' W 124°37'2 6.6
2018-Jul-22 06:30N 46°46' W 124°36'3 6.6
2018-Jul-22 06:00N 46°43' W 124°34'3 6.9
2018-Jul-22 05:31N 46°39' W 124°32'26 3.6
2018-Jul-21 22:27N 46°19' W 124°09'4 8.3
2018-Jul-21 22:01N 46°16' W 124°06'5 9.7
2018-Jul-21 21:31N 46°15' W 123°60'510.0
2018-Jul-21 21:00N 46°12' W 123°54'2 3.3
2018-Jul-21 20:30N 46°11' W 123°51'0 0.4
2018-Jul-21 20:01N 46°11' W 123°52'3 0.1
2018-Jul-20 01:46N 46°10' W 123°55'1 4.7
2018-Jul-20 01:31N 46°11' W 123°54'2 3.7
2018-Jul-20 01:00N 46°11' W 123°51'0 0.0
2018-Jul-20 00:31N 46°11' W 123°51'0 0.2
2018-Jul-20 00:01N 46°11' W 123°52'0 0.2
2018-Jul-19 23:31N 46°11' W 123°51'0 0.0
2018-Jul-19 23:00N 46°11' W 123°51'0 0.0
2018-Jul-19 22:30N 46°11' W 123°51'0 0.0
2018-Jul-19 21:59N 46°11' W 123°51'0 0.0
2018-Jul-19 21:31N 46°11' W 123°51'0 0.0
2018-Jul-19 21:01N 46°11' W 123°51'0 0.0
2018-Jul-19 20:31N 46°11' W 123°51'0 0.0
2018-Jul-19 19:59N 46°11' W 123°51'0 0.0
2018-Jul-19 19:30N 46°11' W 123°51'0 0.0
2018-Jul-19 19:01N 46°11' W 123°51'0 0.0
2018-Jul-19 18:31N 46°11' W 123°51'0 0.0
2018-Jul-19 18:01N 46°11' W 123°51'0 0.0
2018-Jul-19 17:18N 46°11' W 123°51'0 0.0
2018-Jul-19 16:53N 46°11' W 123°51'0 0.0
2018-Jul-19 16:30N 46°11' W 123°51'0 0.0
2018-Jul-19 16:01N 46°11' W 123°51'0 0.0
2018-Jul-19 15:24N 46°11' W 123°51'0 0.0
2018-Jul-19 14:55N 46°11' W 123°51'0 0.0
2018-Jul-19 14:31N 46°11' W 123°51'0 0.0
2018-Jul-19 13:27N 46°11' W 123°51'0 0.0
2018-Jul-19 13:00N 46°11' W 123°51'0 0.0
2018-Jul-19 12:29N 46°11' W 123°51'0 0.0
2018-Jul-19 12:00N 46°11' W 123°51'0 0.0
2018-Jul-19 11:31N 46°11' W 123°51'0 0.0
2018-Jul-19 11:00N 46°11' W 123°51'2 4.6
2018-Jul-19 10:31N 46°12' W 123°55'5 8.4
2018-Jul-19 09:55N 46°15' W 124°00'3 7.8
2018-Jul-19 09:31N 46°15' W 124°05'4 7.2
2018-Jul-19 09:00N 46°18' W 124°08'4 8.3
2018-Jul-19 08:31N 46°22' W 124°11'5 9.0
2018-Jul-19 08:00N 46°26' W 124°14'4 9.1
2018-Jul-19 07:30N 46°30' W 124°17'5 9.1
2018-Jul-19 06:59N 46°34' W 124°20'4 8.3
2018-Jul-19 06:31N 46°38' W 124°22'4 8.6
2018-Jul-19 06:00N 46°42' W 124°25'4 8.4
2018-Jul-19 05:28N 46°45' W 124°30'4 8.5
2018-Jul-19 05:00N 46°48' W 124°33'5 8.3
2018-Jul-19 04:26N 46°52' W 124°38'3 5.8
2018-Jul-19 04:00N 46°53' W 124°41'2 2.4
2018-Jul-19 03:02N 46°55' W 124°43'0 5.5
2018-Jul-19 03:00N 46°55' W 124°43'5 6.4
2018-Jul-19 02:17N 46°59' W 124°47'2 0.4
2018-Jul-18 22:11N 46°60' W 124°48'0 2.3
2018-Jul-18 22:00N 46°60' W 124°48'0 0.5
2018-Jul-18 21:27N 46°60' W 124°48'43 1.1
2018-Jul-17 06:06N 47°42' W 125°00'0 0.5
2018-Jul-17 05:54N 47°42' W 125°01'4 2.9
2018-Jul-17 04:34N 47°40' W 124°55'0 0.9
2018-Jul-17 04:11N 47°39' W 124°56'0 1.8
2018-Jul-17 03:54N 47°39' W 124°55'1 1.6
2018-Jul-17 03:29N 47°38' W 124°55'5 0.4
2018-Jul-16 14:19N 47°34' W 124°54'4 1.7
2018-Jul-16 12:07N 47°30' W 124°55'1 0.9
2018-Jul-16 11:10N 47°31' W 124°56'0 0.9
2018-Jul-16 10:55N 47°31' W 124°56'0 0.9
2018-Jul-16 10:30N 47°31' W 124°56'0 0.9
2018-Jul-16 10:01N 47°32' W 124°56'3 1.1
2018-Jul-16 07:37N 47°34' W 124°58'0 1.3
2018-Jul-16 07:30N 47°34' W 124°58'1 1.3
2018-Jul-16 06:58N 47°35' W 124°58'1 1.2
2018-Jul-16 06:30N 47°36' W 124°59'1 1.2
2018-Jul-16 06:00N 47°36' W 124°59'2 4.6
2018-Jul-16 05:30N 47°34' W 124°56'1 2.9
2018-Jul-16 05:00N 47°34' W 124°55'0 0.8
2018-Jul-16 04:30N 47°34' W 124°54'1 1.5
2018-Jul-16 04:00N 47°34' W 124°55'1 1.8
2018-Jul-16 03:27N 47°35' W 124°55'1 2.0
2018-Jul-16 02:44N 47°36' W 124°57'0 0.9
2018-Jul-16 02:14N 47°36' W 124°56'0 1.7
2018-Jul-16 02:00N 47°36' W 124°56'1 1.6
2018-Jul-16 01:30N 47°35' W 124°55'1 1.7
2018-Jul-16 00:59N 47°34' W 124°55'1 1.6
2018-Jul-16 00:31N 47°34' W 124°54'1 1.6
2018-Jul-15 23:59N 47°33' W 124°54'1 1.7
2018-Jul-15 23:30N 47°32' W 124°53'0 0.9
2018-Jul-15 22:59N 47°32' W 124°53'3 1.5
2018-Jul-15 20:54N 47°35' W 124°55'1 1.8
2018-Jul-15 20:30N 47°34' W 124°54'1 1.7
2018-Jul-15 20:01N 47°33' W 124°54'1 1.8
2018-Jul-15 19:30N 47°32' W 124°53'2 2.3
2018-Jul-15 18:39N 47°31' W 124°52'20 2.6
2018-Jul-15 10:54N 47°14' W 124°36'3 7.8
2018-Jul-15 10:28N 47°11' W 124°34'4 7.6
2018-Jul-15 09:57N 47°07' W 124°32'4 7.9
2018-Jul-15 09:30N 47°04' W 124°30'4 8.3
2018-Jul-15 09:00N 47°00' W 124°27'4 8.2
2018-Jul-15 08:30N 46°56' W 124°24'4 8.1
2018-Jul-15 08:00N 46°53' W 124°22'4 8.3
2018-Jul-15 07:31N 46°49' W 124°20'4 8.4
2018-Jul-15 06:59N 46°45' W 124°18'4 8.5
2018-Jul-15 06:30N 46°41' W 124°16'4 8.4
2018-Jul-15 06:01N 46°37' W 124°15'4 8.2
2018-Jul-15 05:30N 46°33' W 124°14'4 8.2
2018-Jul-15 05:00N 46°29' W 124°13'4 8.1
2018-Jul-15 04:30N 46°25' W 124°11'4 8.2
2018-Jul-15 04:00N 46°20' W 124°10'4 8.4
2018-Jul-15 03:30N 46°17' W 124°08'5 9.2
2018-Jul-15 03:01N 46°15' W 124°02'611.5
2018-Jul-15 02:31N 46°12' W 123°55'3 5.2
2018-Jul-15 02:00N 46°11' W 123°51'  

Dump ship's entire track history